Time;durP1;ratioP1;P1;durP2;ratioP2;P2;SDS_P1;SDS_P2;PMS_P1;PMS_P2;Temp;Humidity;BMP_temperature;BMP_pressure;BME280_temperature;BME280_humidity;BME280_pressure;Samples;Min_cycle;Max_cycle;Signal;HPM_P1;HPM_P2
2023/01/19 00:00:57;;;;;;;;;;;;;;;-1.33;92.88;95578.22;5044974;28;19921;-72
2023/01/19 00:03:22;;;;;;;;;;;;;;;-1.32;93.11;95582.50;5040015;28;19916;-73
2023/01/19 00:05:48;;;;;;;;;;;;;;;-1.40;93.49;95579.50;5043961;28;20435;-73
2023/01/19 00:08:13;;;;;;;;;;;;;;;-1.50;93.83;95573.66;5007775;28;19944;-71
2023/01/19 00:10:39;;;;;;;;;;;;;;;-1.53;94.89;95577.78;5049103;28;19976;-72
2023/01/19 00:13:04;;;;;;;;;;;;;;;-1.61;95.09;95586.63;5040917;28;19924;-74
2023/01/19 00:15:30;;;;;;;;;;;;;;;-1.62;96.13;95583.16;5044239;28;19920;-73
2023/01/19 00:17:55;;;;;;;;;;;;;;;-1.65;96.38;95588.38;5043796;28;20011;-71
2023/01/19 00:20:20;;;;;;;;;;;;;;;-1.66;96.69;95586.78;5022191;28;19960;-73
2023/01/19 00:22:49;;;;;;;;;;;;;;;-1.73;96.97;95592.59;5044118;28;20392;-73
2023/01/19 00:25:15;;;;;;;;;;;;;;;-1.81;97.66;95588.81;5050344;28;20014;-73
2023/01/19 00:27:40;;;;;;;;;;;;;;;-1.75;98.01;95584.06;5064739;28;20019;-72
2023/01/19 00:30:06;;;;;;;;;;;;;;;-1.77;97.71;95588.97;5032635;28;19917;-73
2023/01/19 00:32:31;;;;;;;;;;;;;;;-1.76;98.31;95588.66;5044535;28;19961;-72
2023/01/19 00:34:57;;;;;;;;;;;;;;;-1.81;97.91;95590.72;5043993;28;19955;-73
2023/01/19 00:37:22;;;;;;;;;;;;;;;-1.81;98.04;95590.72;5038614;28;19964;-73
2023/01/19 00:39:47;;;;;;;;;;;;;;;-1.74;97.88;95588.34;5044080;28;19921;-73
2023/01/19 00:44:56;;;;;;;;;;;;;;;-1.98;98.20;95584.22;5026351;28;19955;-72
2023/01/19 00:47:22;;;;;;;;;;;;;;;-2.03;98.05;95599.69;5038791;28;20480;-72
2023/01/19 00:49:47;;;;;;;;;;;;;;;-2.08;98.66;95595.25;5044262;28;20035;-72
2023/01/19 00:52:12;;;;;;;;;;;;;;;-2.24;98.53;95605.59;5038362;28;19964;-72
2023/01/19 00:54:38;;;;;;;;;;;;;;;-2.34;99.05;95595.97;5060554;28;20273;-71
2023/01/19 00:57:03;;;;;;;;;;;;;;;-2.30;100.00;95601.50;5058352;28;19975;-74
2023/01/19 00:59:29;;;;;;;;;;;;;;;-2.44;99.68;95598.13;5051216;28;19925;-72
2023/01/19 01:01:54;;;;;;;;;;;;;;;-2.41;100.00;95609.03;5031892;28;20032;-71
2023/01/19 01:04:19;;;;;;;;;;;;;;;-2.31;100.00;95614.09;5045140;28;20088;-72
2023/01/19 01:06:45;;;;;;;;;;;;;;;-2.26;100.00;95612.38;5044661;28;19920;-71
2023/01/19 01:09:13;;;;;;;;;;;;;;;-2.22;100.00;95619.50;5054732;28;19924;-72
2023/01/19 01:11:39;;;;;;;;;;;;;;;-2.22;100.00;95621.38;5043591;28;19966;-71
2023/01/19 01:14:05;;;;;;;;;;;;;;;-2.14;100.00;95621.41;5038536;28;19944;-69
2023/01/19 01:16:30;;;;;;;;;;;;;;;-2.20;100.00;95625.34;5043221;28;19921;-72
2023/01/19 01:18:55;;;;;;;;;;;;;;;-2.21;100.00;95623.75;5054340;28;19980;-72
2023/01/19 01:21:21;;;;;;;;;;;;;;;-2.18;100.00;95630.38;5051126;28;19956;-72
2023/01/19 01:23:46;;;;;;;;;;;;;;;-2.14;100.00;95628.69;5025476;28;20386;-72
2023/01/19 01:26:11;;;;;;;;;;;;;;;-2.13;100.00;95628.34;5038176;28;20435;-73
2023/01/19 01:28:36;;;;;;;;;;;;;;;-2.10;100.00;95629.63;5043268;28;19921;-71
2023/01/19 01:31:02;;;;;;;;;;;;;;;-2.17;100.00;95632.78;5042012;28;19924;-76
2023/01/19 01:33:27;;;;;;;;;;;;;;;-2.17;100.00;95632.78;5021503;28;19924;-72
2023/01/19 01:35:52;;;;;;;;;;;;;;;-2.16;100.00;95636.22;5042660;28;19971;-72
2023/01/19 01:38:18;;;;;;;;;;;;;;;-2.20;100.00;95635.28;5038320;28;19927;-72
2023/01/19 01:40:43;;;;;;;;;;;;;;;-2.23;100.00;95638.56;5025371;28;19916;-71
2023/01/19 01:43:12;;;;;;;;;;;;;;;-2.19;100.00;95636.88;5051210;28;19966;-71
2023/01/19 01:45:38;;;;;;;;;;;;;;;-2.22;100.00;95642.84;5055100;28;19921;-72
2023/01/19 01:48:07;;;;;;;;;;;;;;;-2.26;100.00;95645.38;5043787;28;20123;-73
2023/01/19 01:50:34;;;;;;;;;;;;;;;-2.28;100.00;95650.25;5046852;28;20294;-71
2023/01/19 01:53:10;;;;;;;;;;;;;;;-2.31;100.00;95645.50;5042250;28;19924;-70
2023/01/19 01:55:39;;;;;;;;;;;;;;;-2.29;100.00;95650.56;5042320;28;19917;-71
2023/01/19 01:58:04;;;;;;;;;;;;;;;-2.32;100.00;95644.72;5045204;28;20362;-71
2023/01/19 02:02:49;;;;;;;;;;;;;;;-2.27;100.00;95649.13;5054716;28;19974;-71
2023/01/19 02:03:18;;;;;;;;;;;;;;;-2.33;100.00;95650.38;5057402;28;19923;-71
2023/01/19 02:05:44;;;;;;;;;;;;;;;-2.44;100.00;95641.03;5063059;28;20103;-72
2023/01/19 02:13:46;;;;;;;;;;;;;;;-3.15;100.00;95647.06;5061759;28;19938;-71
2023/01/19 02:16:12;;;;;;;;;;;;;;;-3.41;100.00;95646.88;5057059;28;19917;-71
2023/01/19 02:18:38;;;;;;;;;;;;;;;-3.55;100.00;95653.03;5063132;28;19921;-70
2023/01/19 02:21:21;;;;;;;;;;;;;;;-3.58;100.00;95658.22;5055456;28;20398;-73
2023/01/19 02:23:49;;;;;;;;;;;;;;;-3.63;100.00;95656.44;5061769;28;19920;-71
2023/01/19 02:26:18;;;;;;;;;;;;;;;-3.47;100.00;95659.59;5058128;28;19921;-71
2023/01/19 02:28:58;;;;;;;;;;;;;;;-3.18;100.00;95658.41;5062325;28;20373;-71
2023/01/19 02:31:24;;;;;;;;;;;;;;;-3.19;100.00;95662.94;5039775;28;20651;-72
2023/01/19 02:33:50;;;;;;;;;;;;;;;-3.25;100.00;95672.22;5041539;28;19986;-71
2023/01/19 02:36:17;;;;;;;;;;;;;;;-3.28;100.00;95672.81;5036914;28;20370;-71
2023/01/19 02:38:45;;;;;;;;;;;;;;;-3.28;100.00;95678.16;5024093;28;19923;-71
2023/01/19 02:41:13;;;;;;;;;;;;;;;-3.36;100.00;95671.66;5037763;28;19962;-71
2023/01/19 02:43:40;;;;;;;;;;;;;;;-3.34;100.00;95682.06;5041419;28;19925;-71
2023/01/19 02:46:06;;;;;;;;;;;;;;;-3.22;100.00;95676.97;5019068;28;19925;-72
2023/01/19 02:48:31;;;;;;;;;;;;;;;-3.01;100.00;95684.53;5023840;28;19970;-72
2023/01/19 02:50:59;;;;;;;;;;;;;;;-3.01;100.00;95684.53;5043312;28;19954;-73
2023/01/19 02:53:46;;;;;;;;;;;;;;;-2.99;100.00;95685.81;5018473;28;20373;-72
2023/01/19 02:56:27;;;;;;;;;;;;;;;-2.90;100.00;95683.97;5037175;28;19917;-73
2023/01/19 02:59:11;;;;;;;;;;;;;;;-2.88;100.00;95697.09;5049290;28;20011;-72
2023/01/19 03:01:45;;;;;;;;;;;;;;;-2.91;100.00;95693.09;5009828;28;20309;-71
2023/01/19 03:04:28;;;;;;;;;;;;;;;-2.77;100.00;95689.59;5056687;28;19921;-71
2023/01/19 03:06:59;;;;;;;;;;;;;;;-2.74;100.00;95700.50;5049065;28;19960;-70
2023/01/19 03:09:32;;;;;;;;;;;;;;;-2.64;100.00;95694.06;5042667;28;19920;-72
2023/01/19 03:12:08;;;;;;;;;;;;;;;-2.54;100.00;95691.16;5043399;28;19966;-72
2023/01/19 03:14:38;;;;;;;;;;;;;;;-2.43;100.00;95697.03;5041872;28;19921;-70
2023/01/19 03:17:06;;;;;;;;;;;;;;;-2.28;100.00;95690.47;5057831;28;19921;-72
2023/01/19 03:19:33;;;;;;;;;;;;;;;-2.17;100.00;95699.06;5061828;28;20356;-71
2023/01/19 03:22:20;;;;;;;;;;;;;;;-2.03;100.00;95693.59;5062160;28;19926;-71
2023/01/19 03:24:46;;;;;;;;;;;;;;;-2.15;100.00;95692.25;5050527;28;19935;-73
2023/01/19 03:27:15;;;;;;;;;;;;;;;-2.17;100.00;95682.94;5040350;28;19956;-72
2023/01/19 03:29:42;;;;;;;;;;;;;;;-2.29;100.00;95683.53;5027811;28;19924;-70
2023/01/19 03:32:11;;;;;;;;;;;;;;;-2.29;100.00;95683.53;5005802;28;19971;-72
2023/01/19 03:34:37;;;;;;;;;;;;;;;-2.33;100.00;95675.31;5045521;28;19928;-74
2023/01/19 03:37:03;;;;;;;;;;;;;;;-2.38;100.00;95680.00;5025172;28;19961;-74
2023/01/19 03:39:29;;;;;;;;;;;;;;;-2.20;100.00;95686.25;5043561;28;19924;-72
2023/01/19 03:41:57;;;;;;;;;;;;;;;-2.16;100.00;95684.53;5046574;28;19916;-73
2023/01/19 03:44:24;;;;;;;;;;;;;;;-2.13;100.00;95690.06;5041724;28;20379;-72
2023/01/19 03:46:50;;;;;;;;;;;;;;;-2.24;100.00;95686.06;5047511;28;19916;-73
2023/01/19 03:49:16;;;;;;;;;;;;;;;-2.26;100.00;95693.66;5040805;28;19920;-72
2023/01/19 03:51:41;;;;;;;;;;;;;;;-2.41;100.00;95696.72;5022758;28;19947;-72
2023/01/19 03:54:08;;;;;;;;;;;;;;;-2.67;100.00;95699.25;5039536;28;19921;-74
2023/01/19 03:56:34;;;;;;;;;;;;;;;-2.88;100.00;95699.75;5044904;28;19971;-72
2023/01/19 03:58:59;;;;;;;;;;;;;;;-2.92;100.00;95696.91;5053184;28;20466;-73
2023/01/19 04:01:24;;;;;;;;;;;;;;;-2.95;100.00;95702.84;5048179;28;19916;-73
2023/01/19 04:03:50;;;;;;;;;;;;;;;-3.11;100.00;95707.00;5044246;28;20007;-72
2023/01/19 04:06:16;;;;;;;;;;;;;;;-3.23;100.00;95702.16;5038677;28;20302;-73
2023/01/19 04:08:41;;;;;;;;;;;;;;;-3.24;100.00;95702.44;5056560;28;20339;-72
2023/01/19 04:11:10;;;;;;;;;;;;;;;-3.31;100.00;95705.56;5057399;28;19917;-72
2023/01/19 04:13:36;;;;;;;;;;;;;;;-3.36;100.00;95700.31;5063443;28;19924;-72
2023/01/19 04:16:03;;;;;;;;;;;;;;;-3.37;100.00;95701.41;5053287;28;19916;-71
2023/01/19 04:18:28;;;;;;;;;;;;;;;-3.51;100.00;95702.22;5043563;28;19983;-71
2023/01/19 04:20:54;;;;;;;;;;;;;;;-3.64;100.00;95700.34;5044143;28;19962;-70
2023/01/19 04:23:19;;;;;;;;;;;;;;;-3.73;100.00;95705.63;5039418;28;19917;-73
2023/01/19 04:25:45;;;;;;;;;;;;;;;-3.73;100.00;95702.94;5043393;28;20009;-72
2023/01/19 04:28:10;;;;;;;;;;;;;;;-3.77;100.00;95710.00;5037490;28;19968;-73
2023/01/19 04:30:35;;;;;;;;;;;;;;;-3.87;100.00;95716.34;5043821;28;19924;-72
2023/01/19 04:33:01;;;;;;;;;;;;;;;-3.93;100.00;95711.38;5044238;28;19924;-71
2023/01/19 04:35:27;;;;;;;;;;;;;;;-3.77;100.00;95712.66;5021026;28;19917;-71
2023/01/19 04:37:52;;;;;;;;;;;;;;;-3.75;100.00;95715.81;5043301;28;19925;-72
2023/01/19 04:40:18;;;;;;;;;;;;;;;-3.82;100.00;95717.31;5050411;28;19925;-71
2023/01/19 04:42:44;;;;;;;;;;;;;;;-3.78;100.00;95712.97;5044229;28;19917;-71
2023/01/19 04:45:10;;;;;;;;;;;;;;;-3.75;100.00;95715.03;5039409;28;19935;-70
2023/01/19 04:47:36;;;;;;;;;;;;;;;-3.76;100.00;95718.81;5044184;28;19917;-72
2023/01/19 04:50:01;;;;;;;;;;;;;;;-3.80;100.00;95720.50;5043819;28;20433;-71
2023/01/19 04:52:35;;;;;;;;;;;;;;;-4.00;100.00;95716.34;5040507;28;20008;-73
2023/01/19 04:55:02;;;;;;;;;;;;;;;-4.08;100.00;95721.28;5044099;28;19925;-72
2023/01/19 04:57:27;;;;;;;;;;;;;;;-4.11;100.00;95721.09;5040498;28;19924;-72
2023/01/19 04:59:52;;;;;;;;;;;;;;;-4.08;100.00;95723.19;5058796;28;20359;-73
2023/01/19 05:02:18;;;;;;;;;;;;;;;-3.89;100.00;95723.06;5040160;28;19920;-73
2023/01/19 05:04:43;;;;;;;;;;;;;;;-3.77;100.00;95718.00;5042724;28;20370;-72
2023/01/19 05:07:09;;;;;;;;;;;;;;;-3.80;100.00;95726.63;5038137;28;19962;-73
2023/01/19 05:09:34;;;;;;;;;;;;;;;-3.69;100.00;95728.03;5043690;28;19917;-72
2023/01/19 05:11:59;;;;;;;;;;;;;;;-3.60;100.00;95722.78;5043580;28;19923;-73
2023/01/19 05:14:24;;;;;;;;;;;;;;;-3.53;100.00;95723.16;5038277;28;19917;-73
2023/01/19 05:16:50;;;;;;;;;;;;;;;-3.41;100.00;95719.94;5044831;28;19991;-73
2023/01/19 05:19:15;;;;;;;;;;;;;;;-3.61;100.00;95721.19;5038120;28;19931;-73
2023/01/19 05:21:40;;;;;;;;;;;;;;;-3.73;100.00;95726.25;5043525;28;20389;-73
2023/01/19 05:24:06;;;;;;;;;;;;;;;-3.87;100.00;95736.94;5038192;28;19921;-73
2023/01/19 05:26:31;;;;;;;;;;;;;;;-3.96;100.00;95734.19;5042415;28;19921;-74
2023/01/19 05:28:56;;;;;;;;;;;;;;;-3.93;100.00;95732.78;5042103;28;19963;-74
2023/01/19 05:31:22;;;;;;;;;;;;;;;-3.82;100.00;95742.19;5036082;28;20007;-73
2023/01/19 05:33:47;;;;;;;;;;;;;;;-3.89;100.00;95742.63;5043475;28;19964;-74
2023/01/19 05:36:13;;;;;;;;;;;;;;;-3.96;100.00;95736.88;5037675;28;19923;-73
2023/01/19 05:38:38;;;;;;;;;;;;;;;-3.98;100.00;95743.56;5043496;28;20019;-73
2023/01/19 05:41:03;;;;;;;;;;;;;;;-4.09;100.00;95746.47;5021985;28;20278;-74
2023/01/19 05:43:28;;;;;;;;;;;;;;;-4.20;100.00;95750.41;5041009;28;19974;-73
2023/01/19 05:45:54;;;;;;;;;;;;;;;-4.18;100.00;95748.22;5042168;28;20385;-73
2023/01/19 05:48:19;;;;;;;;;;;;;;;-4.22;100.00;95745.34;5037824;28;19924;-73
2023/01/19 05:50:44;;;;;;;;;;;;;;;-4.28;100.00;95743.84;5042156;28;19962;-73
2023/01/19 05:53:09;;;;;;;;;;;;;;;-4.36;100.00;95752.53;5038293;28;19917;-73
2023/01/19 05:55:35;;;;;;;;;;;;;;;-4.23;100.00;95742.97;5042495;28;20374;-72
2023/01/19 05:58:00;;;;;;;;;;;;;;;-4.30;100.00;95748.72;5042157;28;19917;-73
2023/01/19 06:00:26;;;;;;;;;;;;;;;-4.40;100.00;95762.25;5048814;28;20396;-72
2023/01/19 06:02:51;;;;;;;;;;;;;;;-4.41;100.00;95760.66;5062518;28;19916;-71
2023/01/19 06:05:17;;;;;;;;;;;;;;;-4.37;100.00;95766.22;5058588;28;19931;-71
2023/01/19 06:07:42;;;;;;;;;;;;;;;-4.39;100.00;95768.38;5053971;28;20011;-72
2023/01/19 06:10:08;;;;;;;;;;;;;;;-4.25;100.00;95763.84;5037888;28;20344;-72
2023/01/19 06:12:34;;;;;;;;;;;;;;;-4.26;100.00;95768.41;5036930;28;20303;-72
2023/01/19 06:14:59;;;;;;;;;;;;;;;-4.05;100.00;95768.84;5044504;28;20444;-73
2023/01/19 06:17:24;;;;;;;;;;;;;;;-4.08;100.00;95764.09;5054487;28;19923;-73
2023/01/19 06:19:50;;;;;;;;;;;;;;;-4.12;100.00;95768.44;5062687;28;19959;-73
2023/01/19 06:22:15;;;;;;;;;;;;;;;-3.97;100.00;95771.94;5057483;28;20011;-74
2023/01/19 06:24:40;;;;;;;;;;;;;;;-4.15;100.00;95774.38;5047989;28;19924;-73
2023/01/19 06:27:06;;;;;;;;;;;;;;;-4.33;100.00;95786.72;5003065;28;19999;-73
2023/01/19 06:29:31;;;;;;;;;;;;;;;-4.51;100.00;95791.00;5042074;28;19917;-73
2023/01/19 06:31:56;;;;;;;;;;;;;;;-4.59;100.00;95789.03;5045994;28;19917;-73
2023/01/19 06:34:25;;;;;;;;;;;;;;;-4.72;100.00;95792.41;5044252;28;19971;-73
2023/01/19 06:36:51;;;;;;;;;;;;;;;-4.85;100.00;95800.06;5054483;28;19917;-73
2023/01/19 06:39:16;;;;;;;;;;;;;;;-4.81;100.00;95800.28;5028487;28;19924;-73
2023/01/19 06:41:41;;;;;;;;;;;;;;;-4.80;100.00;95799.22;5049052;28;19959;-75
2023/01/19 06:44:06;;;;;;;;;;;;;;;-4.89;100.00;95792.94;5038598;28;19946;-73
2023/01/19 06:46:33;;;;;;;;;;;;;;;-4.72;100.00;95789.75;5043464;28;19917;-74
2023/01/19 06:48:58;;;;;;;;;;;;;;;-4.89;100.00;95795.63;5045320;28;19921;-73
2023/01/19 06:51:24;;;;;;;;;;;;;;;-4.98;100.00;95797.38;5020925;28;20401;-73
2023/01/19 06:53:49;;;;;;;;;;;;;;;-5.03;100.00;95798.22;5024265;28;19944;-74
2023/01/19 06:56:15;;;;;;;;;;;;;;;-4.97;100.00;95799.72;5019719;28;19960;-74
2023/01/19 06:58:41;;;;;;;;;;;;;;;-5.00;100.00;95801.09;5046476;28;19920;-73
2023/01/19 07:01:07;;;;;;;;;;;;;;;-4.87;100.00;95809.47;5032429;28;19920;-75
2023/01/19 07:03:33;;;;;;;;;;;;;;;-4.83;100.00;95816.59;5048691;28;19916;-72
2023/01/19 07:06:01;;;;;;;;;;;;;;;-4.96;100.00;95825.34;5050003;28;19929;-73
2023/01/19 07:08:29;;;;;;;;;;;;;;;-5.07;100.00;95822.03;5026163;28;19932;-73
2023/01/19 07:10:58;;;;;;;;;;;;;;;-5.13;100.00;95825.03;5046115;28;19959;-72
2023/01/19 07:13:27;;;;;;;;;;;;;;;-5.15;100.00;95835.22;5041728;28;19932;-74
2023/01/19 07:15:52;;;;;;;;;;;;;;;-5.15;100.00;95832.56;5046274;28;19971;-73
2023/01/19 07:18:18;;;;;;;;;;;;;;;-5.14;100.00;95836.81;5041114;28;19944;-74
2023/01/19 07:20:45;;;;;;;;;;;;;;;-5.10;100.00;95845.84;5045648;28;19923;-73
2023/01/19 07:23:11;;;;;;;;;;;;;;;-5.11;100.00;95846.91;5041076;28;19969;-73
2023/01/19 07:25:37;;;;;;;;;;;;;;;-5.14;100.00;95850.97;5045205;28;20011;-74
2023/01/19 07:28:03;;;;;;;;;;;;;;;-5.13;100.00;95843.75;5044596;28;19920;-74
2023/01/19 07:30:28;;;;;;;;;;;;;;;-5.14;100.00;95852.84;5028169;28;19917;-74
2023/01/19 07:32:55;;;;;;;;;;;;;;;-5.20;100.00;95855.56;5045601;28;19952;-74
2023/01/19 07:35:21;;;;;;;;;;;;;;;-5.14;100.00;95850.97;5047356;28;19917;-73
2023/01/19 07:37:46;;;;;;;;;;;;;;;-5.03;100.00;95860.41;5045675;28;19917;-73
2023/01/19 07:40:12;;;;;;;;;;;;;;;-4.93;100.00;95866.72;5042931;28;19917;-73
2023/01/19 07:42:37;;;;;;;;;;;;;;;-4.86;100.00;95861.81;5027637;28;19992;-73
2023/01/19 07:45:03;;;;;;;;;;;;;;;-4.88;100.00;95863.97;5046313;28;20032;-75
2023/01/19 07:47:28;;;;;;;;;;;;;;;-4.91;100.00;95867.25;5042864;28;19921;-75
2023/01/19 07:49:53;;;;;;;;;;;;;;;-4.95;100.00;95868.88;5045970;28;19920;-74
2023/01/19 07:52:19;;;;;;;;;;;;;;;-4.96;100.00;95875.31;5041613;28;19925;-75
2023/01/19 07:54:44;;;;;;;;;;;;;;;-4.98;100.00;95866.81;5046012;28;20399;-74
2023/01/19 07:57:09;;;;;;;;;;;;;;;-4.95;100.00;95876.88;5046975;28;19921;-73
2023/01/19 07:59:35;;;;;;;;;;;;;;;-4.90;100.00;95872.25;5038401;28;19917;-75
2023/01/19 08:02:00;;;;;;;;;;;;;;;-4.73;100.00;95871.00;5056992;28;20289;-74
2023/01/19 08:04:26;;;;;;;;;;;;;;;-4.68;100.00;95873.56;5041466;28;19921;-74
2023/01/19 08:06:51;;;;;;;;;;;;;;;-4.60;100.00;95872.94;5045530;28;20249;-74
2023/01/19 08:09:17;;;;;;;;;;;;;;;-4.72;100.00;95873.34;5041548;28;20251;-73
2023/01/19 08:11:42;;;;;;;;;;;;;;;-4.72;100.00;95875.25;5026679;28;20011;-72
2023/01/19 08:14:08;;;;;;;;;;;;;;;-4.62;100.00;95872.44;5038470;28;19967;-74
2023/01/19 08:16:33;;;;;;;;;;;;;;;-4.64;100.00;95872.72;5045648;28;19971;-74
2023/01/19 08:18:58;;;;;;;;;;;;;;;-4.52;100.00;95882.19;5045582;28;20568;-74
2023/01/19 08:21:24;;;;;;;;;;;;;;;-4.48;100.00;95875.19;5039184;28;19920;-74
2023/01/19 08:23:53;;;;;;;;;;;;;;;-4.23;100.00;95874.78;5044046;28;19917;-73
2023/01/19 08:26:26;;;;;;;;;;;;;;;-4.02;100.00;95877.13;5021106;28;19925;-74
2023/01/19 08:28:51;;;;;;;;;;;;;;;-3.75;100.00;95872.94;5044612;28;19971;-74
2023/01/19 08:31:16;;;;;;;;;;;;;;;-3.51;100.00;95870.88;5039699;28;19917;-73
2023/01/19 08:33:42;;;;;;;;;;;;;;;-3.32;100.00;95872.66;5044673;28;19923;-74
2023/01/19 08:36:07;;;;;;;;;;;;;;;-3.14;100.00;95869.09;5021623;28;19917;-74
2023/01/19 08:38:32;;;;;;;;;;;;;;;-3.08;100.00;95875.13;5044127;28;19959;-74
2023/01/19 08:40:57;;;;;;;;;;;;;;;-2.72;100.00;95882.44;5044967;28;20231;-73
2023/01/19 08:43:23;;;;;;;;;;;;;;;-2.15;100.00;95879.28;5039108;28;19996;-74
2023/01/19 08:45:50;;;;;;;;;;;;;;;-1.65;100.00;95879.13;5044102;28;19924;-74
2023/01/19 08:48:16;;;;;;;;;;;;;;;-1.27;100.00;95883.25;5039470;28;20401;-74
2023/01/19 08:50:44;;;;;;;;;;;;;;;-1.25;100.00;95887.19;5044177;28;19920;-74
2023/01/19 08:53:09;;;;;;;;;;;;;;;-1.11;100.00;95889.78;5021810;28;19916;-74
2023/01/19 08:55:35;;;;;;;;;;;;;;;-1.36;100.00;95885.91;5043676;28;19924;-74
2023/01/19 08:58:02;;;;;;;;;;;;;;;-1.40;100.00;95890.31;5043801;28;20393;-74
2023/01/19 09:00:30;;;;;;;;;;;;;;;-1.58;100.00;95890.22;5029026;28;19916;-74
2023/01/19 09:02:56;;;;;;;;;;;;;;;-1.56;100.00;95881.84;5055815;28;19939;-75
2023/01/19 09:05:22;;;;;;;;;;;;;;;-1.44;100.00;95892.81;5048806;28;19994;-77
2023/01/19 09:07:48;;;;;;;;;;;;;;;-1.22;100.00;95901.94;5049541;28;19920;-73
2023/01/19 09:10:14;;;;;;;;;;;;;;;-1.02;99.65;95900.56;5043487;28;19923;-73
2023/01/19 09:12:39;;;;;;;;;;;;;;;-0.85;98.18;95899.81;5043301;28;19928;-73
2023/01/19 09:15:05;;;;;;;;;;;;;;;-0.81;95.57;95901.59;5038422;28;19917;-74
2023/01/19 09:17:31;;;;;;;;;;;;;;;-0.52;94.20;95910.16;5043672;28;19977;-74
2023/01/19 09:19:56;;;;;;;;;;;;;;;0.01;92.77;95911.78;5043654;28;19924;-73
2023/01/19 09:22:22;;;;;;;;;;;;;;;-0.10;90.97;95913.22;5020225;28;19921;-74
2023/01/19 09:24:47;;;;;;;;;;;;;;;-0.13;91.29;95922.72;5040679;28;19924;-74
2023/01/19 09:27:13;;;;;;;;;;;;;;;-0.35;93.25;95918.28;5039571;28;20007;-74
2023/01/19 09:29:38;;;;;;;;;;;;;;;-0.17;91.72;95919.06;5043045;28;20002;-75
2023/01/19 09:32:03;;;;;;;;;;;;;;;-0.39;92.64;95920.00;5039773;28;19917;-77
2023/01/19 09:34:30;;;;;;;;;;;;;;;-0.27;92.01;95914.81;5041317;28;20015;-73
2023/01/19 09:36:55;;;;;;;;;;;;;;;-0.20;93.74;95909.75;5042928;28;20335;-74
2023/01/19 09:39:20;;;;;;;;;;;;;;;-0.36;91.01;95910.50;5038835;28;19928;-74
2023/01/19 09:41:50;;;;;;;;;;;;;;;0.04;90.32;95913.84;5044275;28;19926;-73
2023/01/19 09:44:18;;;;;;;;;;;;;;;0.41;87.19;95924.25;5038736;28;19917;-74
2023/01/19 09:46:44;;;;;;;;;;;;;;;0.50;85.68;95919.66;5042671;28;19966;-73
2023/01/19 09:49:14;;;;;;;;;;;;;;;0.67;86.61;95913.44;5037915;28;20320;-72
2023/01/19 09:51:42;;;;;;;;;;;;;;;1.18;82.74;95921.66;5042606;28;20308;-75
2023/01/19 09:54:14;;;;;;;;;;;;;;;1.93;80.59;95905.63;5038039;28;19916;-72
2023/01/19 09:56:40;;;;;;;;;;;;;;;2.87;74.33;95910.41;5042967;28;19921;-73
2023/01/19 09:59:24;;;;;;;;;;;;;;;2.63;71.91;95910.38;5037731;28;19917;-74
2023/01/19 10:01:52;;;;;;;;;;;;;;;3.40;69.54;95907.88;5050363;28;19928;-75
2023/01/19 10:04:17;;;;;;;;;;;;;;;3.62;66.75;95913.94;5057082;28;20366;-75
2023/01/19 10:06:42;;;;;;;;;;;;;;;3.75;65.70;95907.34;5044949;28;19956;-74
2023/01/19 10:09:17;;;;;;;;;;;;;;;4.01;64.61;95917.00;5058988;28;19920;-72
2023/01/19 10:11:56;;;;;;;;;;;;;;;3.65;65.06;95902.41;5063191;28;20255;-74
2023/01/19 10:14:30;;;;;;;;;;;;;;;3.72;64.63;95909.97;5058996;28;19923;-74
2023/01/19 10:17:19;;;;;;;;;;;;;;;3.59;64.87;95896.44;5062594;28;19928;-75
2023/01/19 10:19:46;;;;;;;;;;;;;;;3.75;62.62;95904.66;5062918;28;20011;-74
2023/01/19 10:22:22;;;;;;;;;;;;;;;4.23;59.61;95907.56;5039986;28;19916;-72
2023/01/19 10:24:51;;;;;;;;;;;;;;;4.41;60.37;95897.19;5047282;28;19920;-73
2023/01/19 10:27:17;;;;;;;;;;;;;;;4.37;59.99;95896.31;5037685;28;19960;-74
2023/01/19 10:29:43;;;;;;;;;;;;;;;4.58;58.01;95896.91;5044176;28;19916;-74
2023/01/19 10:32:21;;;;;;;;;;;;;;;4.78;56.05;95888.88;5019300;28;20427;-72
2023/01/19 10:34:46;;;;;;;;;;;;;;;3.88;57.36;95888.38;5030456;28;19927;-74
2023/01/19 10:37:12;;;;;;;;;;;;;;;3.55;58.63;95882.00;5025376;28;20003;-74
2023/01/19 10:39:37;;;;;;;;;;;;;;;3.25;60.67;95879.53;5030345;28;19917;-74
2023/01/19 10:42:05;;;;;;;;;;;;;;;3.85;58.48;95878.22;5046957;28;19966;-77
2023/01/19 10:44:34;;;;;;;;;;;;;;;3.89;57.54;95873.69;5049253;28;19916;-74
2023/01/19 10:47:00;;;;;;;;;;;;;;;3.96;56.77;95876.59;5031304;28;20296;-75
2023/01/19 10:49:26;;;;;;;;;;;;;;;4.08;56.76;95873.06;5026168;28;19970;-75
2023/01/19 10:51:51;;;;;;;;;;;;;;;4.31;54.66;95876.03;5054228;28;19920;-73
2023/01/19 10:54:18;;;;;;;;;;;;;;;3.85;56.97;95870.09;5062334;28;19924;-73
2023/01/19 10:56:49;;;;;;;;;;;;;;;4.24;55.70;95867.69;5052244;28;19985;-73
2023/01/19 10:59:33;;;;;;;;;;;;;;;3.78;56.57;95865.25;5044879;28;20011;-74
2023/01/19 11:02:21;;;;;;;;;;;;;;;3.27;57.57;95864.91;5055319;28;19920;-74
2023/01/19 11:04:48;;;;;;;;;;;;;;;2.84;59.03;95873.22;5040207;28;20011;-73
2023/01/19 11:07:26;;;;;;;;;;;;;;;3.87;56.71;95873.25;5045593;28;20358;-74
2023/01/19 11:10:10;;;;;;;;;;;;;;;3.59;56.61;95874.00;5068286;28;20165;-73
2023/01/19 11:12:39;;;;;;;;;;;;;;;3.81;56.66;95865.34;5050355;28;19916;-73
2023/01/19 11:15:11;;;;;;;;;;;;;;;3.90;55.66;95865.22;5061958;28;19920;-75
2023/01/19 11:17:40;;;;;;;;;;;;;;;4.05;54.78;95866.41;5078927;28;19967;-73
2023/01/19 11:20:06;;;;;;;;;;;;;;;3.38;56.16;95860.59;5080294;28;19917;-73
2023/01/19 11:22:32;;;;;;;;;;;;;;;3.34;56.33;95862.41;5069370;28;20365;-74
2023/01/19 11:24:58;;;;;;;;;;;;;;;3.28;56.22;95856.44;5069055;28;19968;-73
2023/01/19 11:27:24;;;;;;;;;;;;;;;3.16;56.08;95851.81;5045198;28;20359;-74
2023/01/19 11:29:57;;;;;;;;;;;;;;;3.14;55.96;95862.19;5063848;28;19946;-74
2023/01/19 11:32:26;;;;;;;;;;;;;;;3.04;56.16;95859.94;5037904;28;19920;-73
2023/01/19 11:34:51;;;;;;;;;;;;;;;2.84;57.37;95865.09;5053916;28;19999;-75
2023/01/19 11:37:19;;;;;;;;;;;;;;;2.51;57.80;95870.59;5031453;28;19955;-74
2023/01/19 11:39:52;;;;;;;;;;;;;;;2.46;58.57;95866.16;5054616;28;19971;-74
2023/01/19 11:42:17;;;;;;;;;;;;;;;2.65;57.22;95867.56;5030282;28;19917;-74
2023/01/19 11:45:02;;;;;;;;;;;;;;;2.62;59.09;95857.41;5051115;28;20334;-73
2023/01/19 11:47:31;;;;;;;;;;;;;;;2.92;57.88;95863.44;5040835;28;20409;-72
2023/01/19 11:50:03;;;;;;;;;;;;;;;2.32;59.50;95862.19;5045219;28;19917;-73
2023/01/19 11:52:38;;;;;;;;;;;;;;;1.90;60.52;95860.34;5043653;28;20373;-72
2023/01/19 11:55:09;;;;;;;;;;;;;;;2.00;60.67;95857.25;5042214;28;20270;-73
2023/01/19 11:57:35;;;;;;;;;;;;;;;2.18;60.19;95851.66;5025415;28;19923;-74
2023/01/19 12:00:03;;;;;;;;;;;;;;;1.70;62.02;95843.84;5028350;28;19921;-76
2023/01/19 12:02:36;;;;;;;;;;;;;;;2.05;60.75;95843.56;5053453;28;19916;-72
2023/01/19 12:05:05;;;;;;;;;;;;;;;2.04;61.01;95854.69;5044539;28;20012;-73
2023/01/19 12:07:32;;;;;;;;;;;;;;;2.11;59.62;95852.22;5045662;28;19977;-75
2023/01/19 12:10:18;;;;;;;;;;;;;;;1.97;60.30;95847.09;5028166;28;19962;-72
2023/01/19 12:12:43;;;;;;;;;;;;;;;2.05;60.17;95848.13;5030649;28;20014;-73
2023/01/19 12:15:09;;;;;;;;;;;;;;;2.50;59.02;95841.97;5037004;28;19952;-75
2023/01/19 12:17:37;;;;;;;;;;;;;;;2.44;59.41;95846.00;5025426;28;19928;-74
2023/01/19 12:20:05;;;;;;;;;;;;;;;2.39;60.26;95840.81;5024781;28;19921;-76
2023/01/19 12:22:36;;;;;;;;;;;;;;;2.67;59.51;95849.88;5045880;28;19916;-74
2023/01/19 12:25:04;;;;;;;;;;;;;;;2.62;58.08;95841.19;5025683;28;20004;-75
2023/01/19 12:27:35;;;;;;;;;;;;;;;2.48;59.02;95836.09;5043287;28;19921;-74
2023/01/19 12:30:01;;;;;;;;;;;;;;;2.35;59.30;95850.72;5043991;28;19920;-75
2023/01/19 12:32:32;;;;;;;;;;;;;;;2.24;59.79;95840.31;5022279;28;19921;-75
2023/01/19 12:34:57;;;;;;;;;;;;;;;2.34;60.99;95846.44;5025642;28;20015;-74
2023/01/19 12:37:34;;;;;;;;;;;;;;;2.01;61.70;95847.22;5039035;28;20547;-75
2023/01/19 12:40:02;;;;;;;;;;;;;;;1.63;63.02;95846.28;5025870;28;19917;-74
2023/01/19 12:42:28;;;;;;;;;;;;;;;1.45;63.89;95844.81;5042297;28;20389;-76
2023/01/19 12:45:05;;;;;;;;;;;;;;;1.59;63.28;95841.88;5044218;28;20020;-74
2023/01/19 12:47:31;;;;;;;;;;;;;;;1.67;63.49;95847.19;5042895;28;19924;-73
2023/01/19 12:50:04;;;;;;;;;;;;;;;1.31;65.36;95840.47;5048304;28;20262;-73
2023/01/19 12:52:50;;;;;;;;;;;;;;;1.17;64.94;95844.53;5029129;28;19924;-74